Time;durP1;ratioP1;P1;durP2;ratioP2;P2;SDS_P1;SDS_P2;PMS_P1;PMS_P2;Temp;Humidity;BMP_temperature;BMP_pressure;BME280_temperature;BME280_humidity;BME280_pressure;Samples;Min_cycle;Max_cycle;Signal;HPM_P1;HPM_P2
2024/01/10 00:01:46;;;;;;;9.50;5.70;;;;;;;-7.03;73.74;100251.90;80702;1295;3051462;-68
2024/01/10 00:04:13;;;;;;;9.80;5.10;;;;;;;-7.36;73.85;100260.98;82036;1294;3018998;-67
2024/01/10 00:06:41;;;;;;;13.80;6.40;;;;;;;-7.51;74.28;100250.43;81550;1294;3011582;-66
2024/01/10 00:09:09;;;;;;;12.90;5.50;;;;;;;-7.75;74.68;100241.81;78751;1294;3050317;-67
2024/01/10 00:11:35;;;;;;;12.00;6.40;;;;;;;-7.72;73.83;100242.39;79668;1294;3013715;-69
2024/01/10 00:14:03;;;;;;;19.40;7.80;;;;;;;-7.78;73.81;100238.51;81761;1294;3011433;-68
2024/01/10 00:16:31;;;;;;;17.10;8.00;;;;;;;-7.89;74.64;100240.77;78356;1294;3051406;-69
2024/01/10 00:18:57;;;;;;;16.70;8.50;;;;;;;-7.73;73.72;100242.20;79612;1295;3015954;-67
2024/01/10 00:21:24;;;;;;;20.20;9.70;;;;;;;-7.81;73.81;100243.34;79540;1293;3011236;-69
2024/01/10 00:23:52;;;;;;;20.80;9.30;;;;;;;-7.91;74.11;100240.73;78204;1294;3026830;-68
2024/01/10 00:26:18;;;;;;;17.40;7.70;;;;;;;-7.98;74.94;100232.20;79590;1297;3018992;-67
2024/01/10 00:28:48;;;;;;;19.60;8.60;;;;;;;-8.19;76.53;100228.25;79590;1295;3012766;-69
2024/01/10 00:31:16;;;;;;;14.30;6.80;;;;;;;-8.19;77.63;100226.88;78412;1294;3052103;-66
2024/01/10 00:33:43;;;;;;;10.90;5.20;;;;;;;-8.11;78.67;100224.37;79611;1294;3012935;-65
2024/01/10 00:36:09;;;;;;;13.20;6.00;;;;;;;-8.12;78.90;100221.44;79581;1294;3011595;-67
2024/01/10 00:38:37;;;;;;;18.20;7.40;;;;;;;-8.13;78.52;100215.14;78449;1297;3026562;-67
2024/01/10 00:41:04;;;;;;;18.30;9.50;;;;;;;-8.26;77.33;100202.05;79621;1297;3012999;-68
2024/01/10 00:43:31;;;;;;;14.20;7.60;;;;;;;-8.21;76.99;100198.95;79655;1294;3013319;-67
2024/01/10 00:45:59;;;;;;;16.40;7.70;;;;;;;-7.62;77.53;100191.40;78407;1294;3027781;-66
2024/01/10 00:48:26;;;;;;;18.50;7.30;;;;;;;-6.78;75.05;100191.29;79589;1295;3013797;-67
2024/01/10 00:50:53;;;;;;;21.00;8.90;;;;;;;-6.72;73.25;100189.89;79553;1295;3013253;-67
2024/01/10 00:53:21;;;;;;;27.00;9.80;;;;;;;-6.70;73.84;100188.93;78302;1294;3049334;-66
2024/01/10 00:55:48;;;;;;;17.70;8.40;;;;;;;-6.84;74.18;100186.91;79606;1297;3013142;-67
2024/01/10 00:58:14;;;;;;;17.40;9.10;;;;;;;-6.71;73.96;100183.77;79593;1294;3012786;-66
2024/01/10 01:00:42;;;;;;;30.10;9.50;;;;;;;-6.97;73.18;100174.89;78528;1294;3026113;-68
2024/01/10 01:03:09;;;;;;;24.90;10.30;;;;;;;-7.18;73.76;100173.05;79644;1297;3013437;-68
2024/01/10 01:05:35;;;;;;;23.00;9.60;;;;;;;-7.27;73.79;100175.41;79560;1297;3011897;-68
2024/01/10 01:08:04;;;;;;;24.60;10.50;;;;;;;-7.36;74.01;100167.88;78365;1297;3026321;-67
2024/01/10 01:10:30;;;;;;;24.50;10.20;;;;;;;-7.52;74.97;100163.92;79672;1297;3013163;-66
2024/01/10 01:12:57;;;;;;;21.30;10.60;;;;;;;-7.72;76.03;100166.20;79598;1297;3013121;-69
2024/01/10 01:15:24;;;;;;;22.20;10.50;;;;;;;-7.76;77.40;100162.34;78390;1297;3025828;-66
2024/01/10 01:17:52;;;;;;;25.60;11.30;;;;;;;-7.76;77.62;100161.83;79602;1297;3012968;-69
2024/01/10 01:20:18;;;;;;;25.50;10.50;;;;;;;-7.63;77.66;100158.91;79647;1294;3011632;-66
2024/01/10 01:22:46;;;;;;;21.40;10.60;;;;;;;-7.56;77.21;100155.16;78338;1297;3025869;-67
2024/01/10 01:25:13;;;;;;;20.80;10.10;;;;;;;-7.75;78.61;100151.33;79646;1297;3013271;-67
2024/01/10 01:27:39;;;;;;;22.70;10.80;;;;;;;-7.70;78.72;100145.48;79571;1297;3013378;-66
2024/01/10 01:30:08;;;;;;;15.60;7.30;;;;;;;-7.65;78.99;100135.06;78368;1294;3026285;-68
2024/01/10 01:32:34;;;;;;;20.50;9.80;;;;;;;-7.70;79.32;100128.98;79615;1294;3013341;-67
2024/01/10 01:35:01;;;;;;;19.30;8.80;;;;;;;-7.53;79.68;100126.13;79593;1294;3011386;-68
2024/01/10 01:37:29;;;;;;;23.10;8.60;;;;;;;-7.65;80.15;100130.45;78390;1297;3049657;-69
2024/01/10 01:39:55;;;;;;;24.30;9.40;;;;;;;-7.72;80.83;100119.39;79623;1297;3013629;-70
2024/01/10 01:42:22;;;;;;;27.40;9.90;;;;;;;-7.60;81.02;100114.73;79575;1295;3011887;-67
2024/01/10 01:44:49;;;;;;;19.40;9.70;;;;;;;-7.72;82.00;100113.27;78415;1294;3026684;-70
2024/01/10 01:47:16;;;;;;;15.80;8.90;;;;;;;-7.64;83.04;100103.42;79575;1293;3013815;-68
2024/01/10 01:49:42;;;;;;;20.50;10.50;;;;;;;-7.67;83.14;100094.33;79569;1294;3011764;-68
2024/01/10 01:52:10;;;;;;;19.80;8.80;;;;;;;-7.59;84.52;100092.13;78363;1294;3026886;-69
2024/01/10 01:54:37;;;;;;;16.50;7.50;;;;;;;-7.63;85.11;100098.52;79595;1297;3013480;-69
2024/01/10 01:57:03;;;;;;;11.60;6.30;;;;;;;-7.73;86.44;100091.30;79598;1294;3012001;-67
2024/01/10 01:59:31;;;;;;;14.00;6.80;;;;;;;-7.19;86.55;100081.94;78290;1295;3028578;-68
2024/01/10 02:01:58;;;;;;;9.10;4.80;;;;;;;-6.34;85.10;100079.15;79562;1294;3013015;-68
2024/01/10 02:04:24;;;;;;;13.80;6.70;;;;;;;-6.33;83.42;100072.17;79528;1294;3013756;-69
2024/01/10 02:06:52;;;;;;;18.30;8.80;;;;;;;-6.33;83.53;100069.78;78257;1294;3026569;-69
2024/01/10 02:09:19;;;;;;;18.10;7.40;;;;;;;-6.56;83.42;100057.79;79632;1297;3019711;-70
2024/01/10 02:11:46;;;;;;;17.70;8.00;;;;;;;-6.78;84.92;100060.80;79615;1294;3011914;-68
2024/01/10 02:14:15;;;;;;;17.60;9.10;;;;;;;-6.98;85.62;100048.14;78346;1294;3050890;-67
2024/01/10 02:16:41;;;;;;;18.70;9.90;;;;;;;-7.13;86.09;100046.48;79457;1294;3012954;-70
2024/01/10 02:19:37;;;;;;;24.80;10.70;;;;;;;-7.01;86.60;100039.05;79656;1295;3011948;-68
2024/01/10 02:22:05;;;;;;;25.20;11.40;;;;;;;-6.97;86.65;100037.42;78349;1297;3051067;-66
2024/01/10 02:24:32;;;;;;;24.70;11.30;;;;;;;-7.00;86.60;100045.55;79596;1297;3013328;-68
2024/01/10 02:26:58;;;;;;;24.80;10.60;;;;;;;-7.03;86.41;100039.36;79572;1294;3011472;-67
2024/01/10 02:29:26;;;;;;;22.00;8.60;;;;;;;-7.18;87.27;100038.37;78296;1294;3027157;-68
2024/01/10 02:31:52;;;;;;;19.60;9.10;;;;;;;-6.61;87.94;100022.90;79574;1294;3020633;-71
2024/01/10 02:34:19;;;;;;;20.70;9.70;;;;;;;-5.59;86.37;100016.81;79589;1294;3013240;-67
2024/01/10 02:36:47;;;;;;;24.80;10.30;;;;;;;-5.84;84.43;100023.48;78266;1294;3028421;-69
2024/01/10 02:39:13;;;;;;;14.10;7.70;;;;;;;-5.98;84.35;100017.48;79613;1297;3011674;-66
2024/01/10 02:41:40;;;;;;;17.70;8.80;;;;;;;-5.88;84.39;100015.89;79575;1294;3011582;-65
2024/01/10 02:44:08;;;;;;;22.50;9.70;;;;;;;-6.15;84.48;100006.30;78325;1294;3027930;-67
2024/01/10 02:46:35;;;;;;;16.20;7.00;;;;;;;-6.35;85.28;99998.83;79621;1294;3013111;-68
2024/01/10 02:49:02;;;;;;;16.40;7.60;;;;;;;-6.43;86.22;99995.46;79553;1294;3011900;-71
2024/01/10 02:51:31;;;;;;;21.30;8.50;;;;;;;-6.36;85.61;99987.55;78369;1297;3026532;-67
2024/01/10 02:53:57;;;;;;;14.60;6.70;;;;;;;-6.51;86.57;99971.28;79629;1297;3013201;-68
2024/01/10 02:56:24;;;;;;;17.40;7.00;;;;;;;-6.55;87.18;99964.40;79575;1294;3011518;-67
2024/01/10 02:58:51;;;;;;;14.10;7.10;;;;;;;-6.60;87.62;99952.56;78361;1295;3050276;-68
2024/01/10 03:01:18;;;;;;;17.60;7.70;;;;;;;-6.51;87.49;99957.13;79581;1297;3012922;-68
2024/01/10 03:03:45;;;;;;;18.30;7.20;;;;;;;-5.58;86.79;99945.31;79571;1294;3011994;-67
2024/01/10 03:06:13;;;;;;;12.50;6.40;;;;;;;-5.54;85.17;99947.41;78366;1294;3026181;-66
2024/01/10 03:08:39;;;;;;;18.70;7.60;;;;;;;-5.48;85.05;99936.55;79595;1297;3020928;-70
2024/01/10 03:11:06;;;;;;;18.60;8.50;;;;;;;-5.68;84.88;99929.47;79546;1295;3012008;-70
2024/01/10 03:13:34;;;;;;;21.20;9.30;;;;;;;-5.91;85.68;99925.95;78350;1297;3028280;-72
2024/01/10 03:16:00;;;;;;;15.40;6.50;;;;;;;-5.97;86.46;99938.84;79645;1294;3013134;-69
2024/01/10 03:18:27;;;;;;;21.10;8.80;;;;;;;-6.08;86.56;99931.52;79541;1297;3011897;-68
2024/01/10 03:20:55;;;;;;;24.40;9.70;;;;;;;-6.01;86.53;99917.48;78412;1297;3026062;-68
2024/01/10 03:23:22;;;;;;;20.80;7.80;;;;;;;-6.16;86.62;99906.36;79576;1297;3013506;-67
2024/01/10 03:25:49;;;;;;;15.70;7.30;;;;;;;-6.22;87.66;99901.67;79595;1297;3011833;-69
2024/01/10 03:28:17;;;;;;;16.80;8.50;;;;;;;-6.19;87.98;99894.72;78309;1297;3051068;-71
2024/01/10 03:30:45;;;;;;;17.30;8.80;;;;;;;-6.06;87.46;99887.04;79693;1294;3013151;-69
2024/01/10 03:33:11;;;;;;;17.00;8.10;;;;;;;-5.99;87.43;99888.66;79701;1295;3011658;-71
2024/01/10 03:35:39;;;;;;;15.30;6.90;;;;;;;-5.23;86.37;99884.56;78321;1297;3048949;-71
2024/01/10 03:38:06;;;;;;;18.30;7.70;;;;;;;-4.77;83.31;99885.16;79591;1297;3013618;-70
2024/01/10 03:40:32;;;;;;;16.10;7.30;;;;;;;-5.09;83.13;99899.08;79563;1297;3011740;-70
2024/01/10 03:43:00;;;;;;;20.00;7.90;;;;;;;-5.04;83.05;99885.45;78352;1293;3026015;-70
2024/01/10 03:45:28;;;;;;;16.40;8.00;;;;;;;-5.02;83.09;99895.55;79586;1294;3013493;-69
2024/01/10 03:47:54;;;;;;;14.30;6.60;;;;;;;-5.29;83.04;99898.70;79565;1295;3011791;-70
2024/01/10 03:50:23;;;;;;;13.20;7.00;;;;;;;-5.28;83.45;99886.91;78306;1297;3049766;-72
2024/01/10 03:52:49;;;;;;;11.90;6.10;;;;;;;-5.48;84.19;99893.19;79637;1297;3012879;-71
2024/01/10 03:55:15;;;;;;;16.50;9.00;;;;;;;-5.57;84.89;99891.05;79548;1294;3011718;-70
2024/01/10 03:57:43;;;;;;;15.00;7.60;;;;;;;-5.72;85.08;99896.32;78390;1297;3025280;-71
2024/01/10 04:00:11;;;;;;;15.80;8.20;;;;;;;-5.65;85.04;99888.55;79666;1294;3020627;-72
2024/01/10 04:02:40;;;;;;;16.90;7.50;;;;;;;-5.69;85.99;99891.41;79588;1294;3012246;-68
2024/01/10 04:05:12;;;;;;;23.10;9.70;;;;;;;-5.01;85.20;99886.64;78336;1300;3049481;-68
2024/01/10 04:07:43;;;;;;;15.70;7.90;;;;;;;-4.47;82.85;99897.02;79648;1297;3011623;-70
2024/01/10 04:10:13;;;;;;;22.40;9.50;;;;;;;-4.32;80.91;99898.33;78319;1294;3051055;-72
2024/01/10 04:12:40;;;;;;;33.40;10.80;;;;;;;-4.57;80.99;99906.18;79667;1294;3011567;-71
2024/01/10 04:15:12;;;;;;;21.90;11.10;;;;;;;-4.69;81.02;99900.96;79140;1294;3013744;-72
2024/01/10 04:17:38;;;;;;;19.00;9.00;;;;;;;-4.85;81.54;99894.84;79588;1295;3011645;-67
2024/01/10 04:20:08;;;;;;;17.90;8.80;;;;;;;-5.04;82.08;99897.75;79071;1294;3011852;-69
2024/01/10 04:22:36;;;;;;;19.20;9.90;;;;;;;-5.19;83.11;99894.86;79639;1294;3013227;-70
2024/01/10 04:25:05;;;;;;;18.60;8.30;;;;;;;-5.21;83.17;99888.35;79552;1297;3013544;-70
2024/01/10 04:27:33;;;;;;;22.90;11.30;;;;;;;-5.37;83.57;99888.20;78451;1297;3052905;-69
2024/01/10 04:30:00;;;;;;;24.30;10.70;;;;;;;-5.41;84.33;99893.61;79578;1293;3018769;-70
2024/01/10 04:32:26;;;;;;;21.30;9.70;;;;;;;-5.43;84.57;99893.75;79535;1295;3012170;-67
2024/01/10 04:34:54;;;;;;;23.50;12.00;;;;;;;-5.49;84.99;99893.87;78321;1297;3026892;-69
2024/01/10 04:37:21;;;;;;;19.90;10.50;;;;;;;-5.48;85.13;99893.70;79580;1294;3013231;-68
2024/01/10 04:39:47;;;;;;;12.70;7.00;;;;;;;-5.48;85.59;99889.78;79558;1295;3013149;-68
2024/01/10 04:42:15;;;;;;;15.90;8.20;;;;;;;-4.83;84.38;99875.54;78340;1294;3027430;-70
2024/01/10 04:44:41;;;;;;;14.30;6.30;;;;;;;-4.36;82.20;99872.30;79670;1294;3015380;-68
2024/01/10 04:47:08;;;;;;;22.80;8.40;;;;;;;-4.13;81.02;99868.84;79587;1294;3013264;-66
2024/01/10 04:49:36;;;;;;;13.80;7.80;;;;;;;-4.29;81.24;99854.55;78359;1294;3026184;-69
2024/01/10 04:52:02;;;;;;;15.50;7.90;;;;;;;-4.32;80.64;99854.20;79643;1297;3018554;-67
2024/01/10 04:54:29;;;;;;;16.80;9.20;;;;;;;-4.64;81.25;99841.86;79748;1297;3011666;-68
2024/01/10 04:56:57;;;;;;;14.40;6.90;;;;;;;-4.81;82.17;99841.39;78461;1294;3026366;-67
2024/01/10 04:59:23;;;;;;;16.00;8.60;;;;;;;-4.85;82.45;99844.09;79633;1297;3012983;-68
2024/01/10 05:01:50;;;;;;;19.60;8.60;;;;;;;-4.85;82.40;99843.23;79539;1297;3011841;-69
2024/01/10 05:04:18;;;;;;;26.20;9.20;;;;;;;-4.95;82.80;99846.05;78431;1298;3025782;-71
2024/01/10 05:06:44;;;;;;;20.00;8.60;;;;;;;-4.97;83.43;99855.61;79807;1295;3013615;-70
2024/01/10 05:09:12;;;;;;;20.10;8.60;;;;;;;-4.95;83.42;99851.69;79658;1297;3013309;-72
2024/01/10 05:11:40;;;;;;;24.80;8.50;;;;;;;-5.00;83.33;99867.04;78515;1295;3027301;-70
2024/01/10 05:14:06;;;;;;;22.10;8.50;;;;;;;-5.03;83.41;99858.96;79580;1297;3013176;-67
2024/01/10 05:16:33;;;;;;;21.10;8.40;;;;;;;-5.05;83.51;99864.92;79881;1297;3011800;-67
2024/01/10 05:19:02;;;;;;;20.80;6.70;;;;;;;-5.11;83.77;99865.39;78439;1294;3026670;-68
2024/01/10 05:21:31;;;;;;;17.70;7.10;;;;;;;-5.16;84.34;99866.02;79759;1293;3013162;-67
2024/01/10 05:24:00;;;;;;;12.10;6.10;;;;;;;-4.39;83.32;99859.28;79087;1297;3013134;-69
2024/01/10 05:26:26;;;;;;;16.20;6.20;;;;;;;-3.75;80.95;99859.96;79609;1297;3013555;-69
2024/01/10 05:28:53;;;;;;;19.10;6.90;;;;;;;-3.63;79.41;99854.35;79638;1297;3013273;-70
2024/01/10 05:31:20;;;;;;;17.80;7.00;;;;;;;-3.81;79.03;99852.39;78414;1294;3026382;-68
2024/01/10 05:33:47;;;;;;;12.20;7.00;;;;;;;-3.96;79.68;99850.45;79657;1294;3013523;-67
2024/01/10 05:36:13;;;;;;;18.20;6.90;;;;;;;-4.07;79.54;99863.40;79540;1297;3013489;-70
2024/01/10 05:38:41;;;;;;;15.70;8.10;;;;;;;-4.36;80.47;99850.77;78436;1297;3027400;-69
2024/01/10 05:41:08;;;;;;;17.00;8.10;;;;;;;-4.30;80.62;99857.46;79665;1297;3013686;-67
2024/01/10 05:43:34;;;;;;;16.20;6.60;;;;;;;-4.41;80.85;99855.85;79678;1294;3011909;-67
2024/01/10 05:46:04;;;;;;;20.30;8.40;;;;;;;-4.48;81.29;99853.07;78308;1298;3025123;-68
2024/01/10 05:48:32;;;;;;;17.20;7.50;;;;;;;-4.50;81.45;99858.54;79572;1294;3013183;-67
2024/01/10 05:50:58;;;;;;;14.70;7.30;;;;;;;-4.52;81.33;99865.34;79662;1294;3013144;-68
2024/01/10 05:53:26;;;;;;;11.90;7.00;;;;;;;-4.61;82.04;99869.55;78394;1297;3050198;-66
2024/01/10 05:55:53;;;;;;;14.10;6.90;;;;;;;-4.59;82.03;99871.47;79612;1297;3018077;-68
2024/01/10 05:58:20;;;;;;;16.90;7.50;;;;;;;-4.47;81.91;99867.95;79616;1295;3012966;-68
2024/01/10 06:00:48;;;;;;;18.00;6.30;;;;;;;-4.51;81.76;99875.63;78478;1294;3026685;-67
2024/01/10 06:03:14;;;;;;;14.00;6.50;;;;;;;-4.56;82.12;99871.83;79594;1297;3012805;-64
2024/01/10 06:05:41;;;;;;;14.60;5.90;;;;;;;-4.41;82.12;99872.10;79842;1297;3011634;-67
2024/01/10 06:08:09;;;;;;;11.70;5.80;;;;;;;-4.48;81.67;99871.55;78835;1294;3025448;-66
2024/01/10 06:10:35;;;;;;;10.70;5.30;;;;;;;-4.53;82.18;99866.54;79766;1297;3018586;-64
2024/01/10 06:13:02;;;;;;;9.60;4.40;;;;;;;-4.45;81.89;99865.23;79716;1297;3011887;-65
2024/01/10 06:15:31;;;;;;;10.50;3.00;;;;;;;-4.54;82.28;99866.20;78635;1297;3051953;-68
2024/01/10 06:17:58;;;;;;;11.20;4.30;;;;;;;-4.04;81.90;99867.88;79709;1295;3013035;-69
2024/01/10 06:20:24;;;;;;;8.20;4.30;;;;;;;-3.28;79.66;99862.48;79633;1294;3012290;-67
2024/01/10 06:22:52;;;;;;;7.40;4.10;;;;;;;-3.42;78.84;99864.68;78477;1298;3027042;-68
2024/01/10 06:25:18;;;;;;;11.10;4.50;;;;;;;-3.44;78.37;99862.45;79809;1297;3013102;-67
2024/01/10 06:27:45;;;;;;;9.20;4.90;;;;;;;-3.62;78.70;99864.64;79665;1297;3013090;-68
2024/01/10 06:30:13;;;;;;;11.80;5.30;;;;;;;-3.62;78.89;99853.32;78472;1295;3026231;-70
2024/01/10 06:32:39;;;;;;;8.50;3.50;;;;;;;-3.71;79.30;99856.04;79703;1297;3013550;-69
2024/01/10 06:35:09;;;;;;;9.20;3.40;;;;;;;-3.89;79.67;99862.98;79646;1297;3011628;-68
2024/01/10 06:37:37;;;;;;;8.50;3.90;;;;;;;-4.10;80.55;99861.67;78746;1294;3049563;-68
2024/01/10 06:40:05;;;;;;;7.30;3.50;;;;;;;-4.16;80.75;99858.23;79816;1297;3013451;-67
2024/01/10 06:42:32;;;;;;;8.10;3.90;;;;;;;-4.16;81.20;99857.02;79576;1297;3011838;-67
2024/01/10 06:45:00;;;;;;;6.80;3.90;;;;;;;-4.16;81.12;99852.23;78539;1297;3051636;-67
2024/01/10 06:47:26;;;;;;;6.60;3.60;;;;;;;-4.17;81.30;99855.83;79699;1295;3018483;-66
2024/01/10 06:49:53;;;;;;;8.40;3.50;;;;;;;-4.11;81.16;99853.46;79605;1294;3011740;-68
2024/01/10 06:52:21;;;;;;;6.10;2.90;;;;;;;-4.19;81.36;99854.62;78746;1295;3025951;-68
2024/01/10 06:54:48;;;;;;;5.10;3.00;;;;;;;-4.27;81.69;99855.94;79610;1297;3013182;-68
2024/01/10 06:57:14;;;;;;;4.20;2.90;;;;;;;-4.26;82.03;99855.77;79706;1297;3011836;-65
2024/01/10 06:59:43;;;;;;;5.60;3.00;;;;;;;-4.31;82.22;99855.74;78384;1294;3025675;-68
2024/01/10 07:02:09;;;;;;;4.00;2.80;;;;;;;-4.39;82.51;99859.30;79588;1297;3013230;-66
2024/01/10 07:04:37;;;;;;;5.70;2.70;;;;;;;-4.35;82.50;99867.35;79607;1295;3013244;-67
2024/01/10 07:07:05;;;;;;;4.40;2.20;;;;;;;-4.31;82.74;99859.67;78482;1294;3049135;-68
2024/01/10 07:09:32;;;;;;;5.10;3.00;;;;;;;-3.50;81.66;99864.66;79745;1297;3012973;-69
2024/01/10 07:11:58;;;;;;;6.30;2.70;;;;;;;-2.98;79.15;99863.56;79726;1297;3013218;-67
2024/01/10 07:14:26;;;;;;;6.20;2.90;;;;;;;-2.87;78.29;99858.60;78532;1294;3025243;-68
2024/01/10 07:16:56;;;;;;;6.50;3.40;;;;;;;-3.10;78.10;99850.70;79817;1294;3012751;-70
2024/01/10 07:19:25;;;;;;;3.70;2.50;;;;;;;-3.24;78.57;99851.70;79232;1294;3011509;-67
2024/01/10 07:21:54;;;;;;;7.70;3.90;;;;;;;-3.39;78.63;99847.05;79658;1298;3013554;-68
2024/01/10 07:24:21;;;;;;;8.80;4.00;;;;;;;-3.39;79.11;99848.25;79881;1297;3011507;-69
2024/01/10 07:26:48;;;;;;;7.50;4.40;;;;;;;-3.55;79.35;99853.69;78470;1297;3050913;-67
2024/01/10 07:29:15;;;;;;;7.80;3.60;;;;;;;-3.52;79.75;99857.98;79756;1297;3012673;-67
2024/01/10 07:31:42;;;;;;;9.00;4.40;;;;;;;-3.62;79.91;99850.42;79731;1297;3011644;-67
2024/01/10 07:34:10;;;;;;;8.10;4.60;;;;;;;-3.56;79.87;99853.52;78474;1294;3026354;-68
2024/01/10 07:36:42;;;;;;;9.30;5.10;;;;;;;-3.48;79.54;99846.16;79812;1294;3019094;-67
2024/01/10 07:39:10;;;;;;;11.10;5.80;;;;;;;-3.49;79.67;99848.05;78608;1299;3052732;-67
2024/01/10 07:41:38;;;;;;;10.00;6.20;;;;;;;-3.54;79.70;99846.85;79880;1297;3013249;-67
2024/01/10 07:44:06;;;;;;;12.10;6.50;;;;;;;-3.53;79.71;99847.35;79606;1298;3011607;-69
2024/01/10 07:46:34;;;;;;;9.70;5.40;;;;;;;-3.62;79.83;99847.33;78620;1298;3056794;-69
2024/01/10 07:49:01;;;;;;;10.60;6.30;;;;;;;-3.62;79.85;99847.16;79835;1297;3013453;-68
2024/01/10 07:51:27;;;;;;;10.90;5.70;;;;;;;-3.56;79.55;99843.92;79849;1297;3011791;-69
2024/01/10 07:53:55;;;;;;;10.50;6.00;;;;;;;-3.71;79.65;99844.91;78392;1297;3026937;-67
2024/01/10 07:56:22;;;;;;;14.40;6.00;;;;;;;-3.66;79.71;99845.61;79936;1298;3013418;-66
2024/01/10 07:58:49;;;;;;;11.00;5.80;;;;;;;-3.73;79.83;99838.40;79842;1294;3011395;-68
2024/01/10 08:01:17;;;;;;;8.90;5.10;;;;;;;-3.79;79.98;99843.16;78488;1298;3054725;-68
2024/01/10 08:03:44;;;;;;;10.90;6.30;;;;;;;-3.80;79.88;99831.35;79994;1295;3016048;-68
2024/01/10 08:06:12;;;;;;;8.40;4.50;;;;;;;-3.75;79.93;99825.38;79707;1296;3011697;-70
2024/01/10 08:08:40;;;;;;;8.50;4.80;;;;;;;-3.93;80.28;99833.68;78475;1297;3052413;-72
2024/01/10 08:11:06;;;;;;;8.90;5.20;;;;;;;-3.83;80.27;99822.95;79800;1297;3014225;-73
2024/01/10 08:13:33;;;;;;;11.00;6.00;;;;;;;-3.79;80.03;99832.20;79755;1297;3011914;-68
2024/01/10 08:16:01;;;;;;;8.50;5.00;;;;;;;-3.75;80.07;99844.21;78530;1296;3025474;-70
2024/01/10 08:18:27;;;;;;;10.90;6.10;;;;;;;-3.88;80.48;99848.77;79680;1298;3013773;-69
2024/01/10 08:20:55;;;;;;;10.30;6.00;;;;;;;-3.76;80.50;99838.55;79799;1297;3013743;-70
2024/01/10 08:23:22;;;;;;;10.70;6.60;;;;;;;-3.60;80.16;99835.34;78457;1308;3052639;-69
2024/01/10 08:25:49;;;;;;;12.20;5.40;;;;;;;-3.51;79.69;99839.83;79713;1295;3013671;-69
2024/01/10 08:28:16;;;;;;;12.40;6.50;;;;;;;-3.57;79.53;99844.44;79625;1294;3011800;-69
2024/01/10 08:30:45;;;;;;;13.60;7.30;;;;;;;-3.43;79.36;99835.23;78487;1294;3056713;-69
2024/01/10 08:33:11;;;;;;;7.40;4.90;;;;;;;-3.43;79.17;99839.17;79663;1298;3015468;-71
2024/01/10 08:35:38;;;;;;;13.20;6.50;;;;;;;-3.50;79.34;99846.00;79611;1295;3011932;-69
2024/01/10 08:38:07;;;;;;;15.50;7.10;;;;;;;-3.44;78.96;99839.16;78480;1297;3052492;-68
2024/01/10 08:40:34;;;;;;;11.40;6.70;;;;;;;-3.51;78.96;99842.05;79542;1297;3013026;-68
2024/01/10 08:43:01;;;;;;;15.50;7.90;;;;;;;-3.66;79.53;99844.06;79754;1295;3011683;-70
2024/01/10 08:45:29;;;;;;;12.40;6.80;;;;;;;-3.62;79.44;99834.14;78422;1298;3056641;-68
2024/01/10 08:47:57;;;;;;;11.80;7.00;;;;;;;-3.69;79.48;99839.61;79743;1299;3018401;-69
2024/01/10 08:50:24;;;;;;;9.60;5.90;;;;;;;-3.75;79.70;99842.48;79591;1295;3013644;-68
2024/01/10 08:52:52;;;;;;;12.40;6.10;;;;;;;-3.76;79.46;99845.23;78385;1300;3052389;-68
2024/01/10 08:55:18;;;;;;;10.80;6.70;;;;;;;-3.85;79.98;99831.34;79735;1296;3013625;-69
2024/01/10 08:57:45;;;;;;;13.40;6.70;;;;;;;-3.87;80.17;99845.70;79650;1295;3011941;-69
2024/01/10 09:00:16;;;;;;;11.50;6.50;;;;;;;-3.80;80.09;99853.08;78586;1297;3026482;-69
2024/01/10 09:02:43;;;;;;;9.80;6.10;;;;;;;-3.66;79.73;99843.20;79781;1297;3013699;-70
2024/01/10 09:05:12;;;;;;;14.00;6.20;;;;;;;-3.52;79.56;99834.17;79136;1295;3013844;-68
2024/01/10 09:07:38;;;;;;;10.30;6.80;;;;;;;-3.55;79.09;99842.73;79663;1298;3013343;-68
2024/01/10 09:10:07;;;;;;;12.30;6.70;;;;;;;-3.63;79.46;99832.95;79713;1299;3011655;-69
2024/01/10 09:12:35;;;;;;;11.60;6.10;;;;;;;-3.60;79.60;99833.13;78468;1297;3070421;-71
2024/01/10 09:15:02;;;;;;;9.60;5.50;;;;;;;-3.59;79.51;99836.90;79719;1298;3014231;-70
2024/01/10 09:17:29;;;;;;;11.30;5.90;;;;;;;-3.65;79.70;99828.98;79686;1298;3013207;-70
2024/01/10 09:19:57;;;;;;;10.40;5.00;;;;;;;-3.57;79.46;99831.41;78557;1298;3053873;-71
2024/01/10 09:22:24;;;;;;;11.50;6.10;;;;;;;-3.56;79.63;99830.04;79632;1298;3018812;-73
2024/01/10 09:24:51;;;;;;;9.20;4.90;;;;;;;-3.48;79.38;99836.92;79595;1298;3012983;-70
2024/01/10 09:27:19;;;;;;;10.20;5.40;;;;;;;-3.53;79.23;99836.22;78468;1295;3069031;-71
2024/01/10 09:29:45;;;;;;;10.60;5.80;;;;;;;-3.59;79.60;99832.79;79730;1294;3013975;-71
2024/01/10 09:32:12;;;;;;;11.20;5.80;;;;;;;-3.55;79.45;99822.17;79806;1298;3011816;-68
2024/01/10 09:34:40;;;;;;;10.30;5.80;;;;;;;-3.57;79.92;99830.38;78528;1297;3028691;-69
2024/01/10 09:37:07;;;;;;;13.50;7.40;;;;;;;-3.64;80.25;99823.52;79657;1299;3018393;-69
2024/01/10 09:39:34;;;;;;;9.80;4.80;;;;;;;-3.45;80.06;99815.35;79796;1297;3011879;-69
2024/01/10 09:42:01;;;;;;;8.70;4.80;;;;;;;-2.89;78.70;99819.00;78454;1297;3026936;-70
2024/01/10 09:44:29;;;;;;;12.40;5.80;;;;;;;-2.43;77.02;99816.19;79660;1296;3013692;-69
2024/01/10 09:46:55;;;;;;;10.80;6.10;;;;;;;-2.43;76.00;99820.14;79709;1299;3011989;-71
2024/01/10 09:49:24;;;;;;;8.30;5.00;;;;;;;-2.75;76.42;99817.44;78456;1294;3025852;-68
2024/01/10 09:51:53;;;;;;;9.20;5.20;;;;;;;-2.82;76.81;99822.23;79697;1298;3011237;-68
2024/01/10 09:54:22;;;;;;;9.00;4.80;;;;;;;-3.15;77.75;99834.07;79150;1295;3011775;-68
2024/01/10 09:56:49;;;;;;;7.80;3.90;;;;;;;-3.15;78.41;99820.02;79595;1300;3013635;-68
2024/01/10 10:02:05;;;;;;;10.50;4.20;;;;;;;-3.26;78.53;99824.11;80248;1304;3013387;-67
2024/01/10 10:04:32;;;;;;;10.00;5.00;;;;;;;-3.34;78.91;99823.77;79597;1304;3011635;-70
2024/01/10 10:07:00;;;;;;;9.00;5.20;;;;;;;-3.21;78.60;99824.12;79376;1303;3012881;-69
2024/01/10 10:09:30;;;;;;;11.10;6.30;;;;;;;-3.45;79.70;99826.48;78139;1303;3051848;-70
2024/01/10 10:11:57;;;;;;;13.20;6.70;;;;;;;-3.38;79.88;99820.34;79491;1299;3016004;-67
2024/01/10 10:14:26;;;;;;;15.70;7.10;;;;;;;-3.32;79.66;99824.96;79236;1301;3011686;-68
2024/01/10 10:16:55;;;;;;;12.20;7.20;;;;;;;-3.43;80.29;99821.52;78307;1299;3049321;-71
2024/01/10 10:19:24;;;;;;;19.50;8.40;;;;;;;-3.55;81.11;99833.98;79383;1301;3013485;-68
2024/01/10 10:21:52;;;;;;;12.20;6.00;;;;;;;-3.46;80.78;99833.51;78216;1299;3051404;-67
2024/01/10 10:24:18;;;;;;;11.80;6.50;;;;;;;-3.55;81.20;99827.15;79508;1299;3018560;-67
2024/01/10 10:26:45;;;;;;;13.50;7.50;;;;;;;-3.58;81.56;99836.04;79593;1298;3011961;-68
2024/01/10 10:29:18;;;;;;;14.50;7.10;;;;;;;-3.59;82.26;99837.75;78292;1301;3028785;-68
2024/01/10 10:31:47;;;;;;;20.80;9.20;;;;;;;-3.81;82.87;99847.61;79561;1296;3012699;-67
2024/01/10 10:34:16;;;;;;;17.40;8.00;;;;;;;-3.73;83.67;99845.05;78320;1298;3053749;-68
2024/01/10 10:36:43;;;;;;;18.40;8.10;;;;;;;-3.07;82.64;99856.85;79456;1301;3013751;-68
2024/01/10 10:39:13;;;;;;;20.80;9.20;;;;;;;-2.73;80.42;99858.08;79598;1299;3011630;-68
2024/01/10 10:41:41;;;;;;;23.20;9.60;;;;;;;-2.80;80.17;99852.94;78281;1301;3069026;-70
2024/01/10 10:44:07;;;;;;;20.60;9.70;;;;;;;-2.74;79.89;99852.09;79442;1296;3013344;-68
2024/01/10 10:46:34;;;;;;;16.90;8.00;;;;;;;-2.58;79.44;99855.67;79472;1298;3011905;-68
2024/01/10 10:49:06;;;;;;;14.70;8.00;;;;;;;-2.72;79.18;99863.06;78067;1303;3027729;-70
2024/01/10 10:51:33;;;;;;;16.00;7.40;;;;;;;-3.02;80.24;99859.95;79560;1296;3011740;-68
2024/01/10 10:54:01;;;;;;;14.60;7.40;;;;;;;-3.29;81.33;99854.95;78436;1300;3028486;-71
2024/01/10 10:56:30;;;;;;;18.00;9.00;;;;;;;-3.40;81.87;99863.66;79559;1298;3012993;-67
2024/01/10 10:58:56;;;;;;;18.70;10.50;;;;;;;-3.23;81.21;99858.39;79692;1296;3011633;-76
2024/01/10 11:01:24;;;;;;;21.80;12.40;;;;;;;-3.27;81.41;99863.52;78133;1301;3057470;-70
2024/01/10 11:03:51;;;;;;;21.70;10.90;;;;;;;-3.37;82.06;99861.78;79469;1296;3013006;-70
2024/01/10 11:06:17;;;;;;;27.50;12.40;;;;;;;-3.33;81.86;99862.81;79753;1299;3013329;-70
2024/01/10 11:08:50;;;;;;;23.00;12.00;;;;;;;-3.20;82.12;99858.06;78356;1298;3026785;-70
2024/01/10 11:11:40;;;;;;;28.40;12.40;;;;;;;-3.24;81.81;99863.52;79676;1297;3011639;-70